This is the latest recevied weather packets stored in our database for station/object IV3ONZ. If no packets are shown the sender has not sent any weather packets the latest 10 day(s).
| Time | Temp. | Humidity | Pressure | Rain* | Wind** | Luminosity | Snow |
|---|---|---|---|---|---|---|---|
| 1777469404 | 15° C | 69% | 1021.2 hPa | 0 mm | - | 156 W/m² | - |
| 1777467904 | 15.56° C | 69% | 1021 hPa | 0 mm | - | 232 W/m² | - |
| 1777467604 | 15.56° C | 69% | 1021.1 hPa | 0 mm | - | 240 W/m² | - |
| 1777467304 | 15.56° C | 70% | 1021.2 hPa | 0 mm | - | 281 W/m² | - |
| 1777467137 | 15° C | 69% | 1021.1 hPa | 0 mm | - | 277 W/m² | - |
| 1777464904 | 15.56° C | 72% | 1021.1 hPa | 0.25 mm | - | 143 W/m² | - |
| 1777464004 | 15° C | 77% | 1021 hPa | 0.25 mm | - | 230 W/m² | - |
| 1777462806 | 15° C | 78% | 1021.2 hPa | 0.25 mm | - | 179 W/m² | - |
| 1777461304 | 15.56° C | 72% | 1021.2 hPa | 0 mm | - | 129 W/m² | - |
| 1777461005 | 16.11° C | 70% | 1021.4 hPa | 0 mm | - | 121 W/m² | - |
| 1777459504 | 17.22° C | 61% | 1021.6 hPa | 0 mm | - | 88 W/m² | - |
| 1777458604 | 17.78° C | 58% | 1021.3 hPa | 0 mm | - | 76 W/m² | - |
| 1777458304 | 17.78° C | 59% | 1021.2 hPa | 0 mm | - | 89 W/m² | - |
| 1777457404 | 18.33° C | 56% | 1021 hPa | 0 mm | - | 167 W/m² | - |
| 1777456504 | 18.33° C | 54% | 1020.8 hPa | 0 mm | - | 199 W/m² | - |
| 1777455903 | 18.33° C | 55% | 1020.7 hPa | 0 mm | - | 292 W/m² | - |
| 1777453933 | 19.44° C | 52% | 1020.6 hPa | 0 mm | - | 446 W/m² | - |
| 1777452604 | 18.89° C | 56% | 1020.5 hPa | 0 mm | - | 463 W/m² | - |
| 1777451404 | 17.78° C | 56% | 1020.4 hPa | 0 mm | - | 482 W/m² | - |
| 1777450204 | 17.78° C | 56% | 1020.7 hPa | 0 mm | - | 204 W/m² | - |
| 1777447804 | 17.78° C | 55% | 1020.3 hPa | 0 mm | - | 174 W/m² | - |
| 1777447504 | 18.33° C | 54% | 1020.2 hPa | 0 mm | - | 191 W/m² | - |
| 1777446603 | 18.33° C | 52% | 1020 hPa | 0 mm | - | 271 W/m² | - |
| 1777446004 | 18.33° C | 52% | 1020.1 hPa | 0 mm | - | 228 W/m² | - |
| 1777442704 | 17.78° C | 54% | 1019.2 hPa | 0 mm | - | 90 W/m² | - |
* Rain latest hour (hover to see other rain measurements)
** Current wind speed in m/s (hover to see current wind gust speed)